Weather at Almería International Airport

Public forecast

Using degrees Celsius for public forecast. Weather courtesy of forecast.io.

Current aviation weather report (METAR) for Almería International Airport

Retrieved 2021/01/23 01:30 UTC (0 seconds ago):

LEAM 230130Z AUTO 34013G24KT 320V030 CAVOK 15/02 Q1017

Aviation forecast (TAF) for Almería International Airport

Retrieved 2021/01/22 21:27 UTC (4 hours ago):

TAF TAF LEAM 222000Z 2221/2321 24009KT 9999 FEW030 TX18/2313Z TN11/2306Z BECMG 2222/2301 34013KT PROB40 TEMPO 2300/2304 34020G35KT BECMG 2309/2312 25012KT PROB30 TEMPO 2315/2320 25018G28KT